createdAt,value
2023-04-29T00:01:13.088Z,56.28
2023-04-29T00:03:43.104Z,56.67
2023-04-29T00:06:12.665Z,56.64
2023-04-29T00:08:42.140Z,56.51
2023-04-29T00:11:12.054Z,56.51
2023-04-29T00:13:41.547Z,56.52
2023-04-29T00:16:11.294Z,56.46
2023-04-29T00:18:40.876Z,56.40
2023-04-29T00:21:10.735Z,56.26
2023-04-29T00:23:40.062Z,56.10
2023-04-29T00:26:09.255Z,56.03
2023-04-29T00:28:38.260Z,56.11
2023-04-29T00:31:07.453Z,56.14
2023-04-29T00:33:36.249Z,56.20
2023-04-29T00:36:05.632Z,56.16
2023-04-29T00:38:34.692Z,55.95
2023-04-29T00:41:04.501Z,56.18
2023-04-29T00:43:33.954Z,56.13
2023-04-29T00:46:02.864Z,56.24
2023-04-29T00:48:33.767Z,56.25
2023-04-29T00:51:04.366Z,56.49
2023-04-29T00:53:34.023Z,56.64
2023-04-29T00:56:03.462Z,56.75
2023-04-29T00:58:35.917Z,56.88
2023-04-29T01:01:05.348Z,57.50
2023-04-29T01:03:34.623Z,57.90
2023-04-29T01:06:39.000Z,57.93
2023-04-29T01:09:32.380Z,58.63
2023-04-29T01:12:23.420Z,58.90
2023-04-29T01:15:04.936Z,59.32
2023-04-29T01:18:12.511Z,59.50
2023-04-29T01:20:45.262Z,59.29
2023-04-29T01:23:15.436Z,59.37
2023-04-29T01:25:45.898Z,59.31
2023-04-29T01:28:32.543Z,59.14
2023-04-29T01:31:12.255Z,59.02
2023-04-29T01:34:13.578Z,58.78
2023-04-29T01:37:06.643Z,59.05
2023-04-29T01:39:57.658Z,59.34
2023-04-29T01:42:34.716Z,59.38
2023-04-29T01:45:09.145Z,59.22
2023-04-29T01:47:39.700Z,59.10
2023-04-29T01:50:10.019Z,59.46
2023-04-29T01:52:39.775Z,59.76
2023-04-29T01:55:11.741Z,59.91
2023-04-29T01:57:41.433Z,59.73
2023-04-29T02:00:12.468Z,59.63
2023-04-29T02:02:42.120Z,59.85
2023-04-29T02:05:11.832Z,59.96
2023-04-29T02:07:40.558Z,59.88
2023-04-29T02:10:09.955Z,59.99
2023-04-29T02:12:38.968Z,59.86
2023-04-29T02:15:09.063Z,59.90
2023-04-29T02:17:38.265Z,59.98
2023-04-29T02:20:08.942Z,59.66
2023-04-29T02:22:38.041Z,59.47
2023-04-29T02:25:07.740Z,59.38
2023-04-29T02:27:36.817Z,59.38
2023-04-29T02:30:06.930Z,59.63
2023-04-29T02:32:36.994Z,59.56
2023-04-29T02:35:07.295Z,59.11
2023-04-29T02:37:37.198Z,59.01
2023-04-29T02:40:07.902Z,59.23
2023-04-29T02:42:37.224Z,59.37
2023-04-29T02:45:06.910Z,59.53
2023-04-29T02:47:35.822Z,59.29
2023-04-29T02:50:05.329Z,59.03
2023-04-29T02:52:34.501Z,59.19
2023-04-29T02:55:03.771Z,59.76
2023-04-29T02:57:33.148Z,60.06
2023-04-29T03:00:02.612Z,59.98
2023-04-29T03:02:31.832Z,59.64
2023-04-29T03:05:01.571Z,59.42
2023-04-29T03:07:31.002Z,59.73
2023-04-29T03:10:00.450Z,59.85
2023-04-29T03:12:29.716Z,59.80
2023-04-29T03:14:59.161Z,59.58
2023-04-29T03:17:28.199Z,59.55
2023-04-29T03:19:57.815Z,59.85
2023-04-29T03:22:27.310Z,60.39
2023-04-29T03:24:56.817Z,60.44
2023-04-29T03:27:26.000Z,60.66
2023-04-29T03:29:55.695Z,60.86
2023-04-29T03:32:24.969Z,61.18
2023-04-29T03:34:55.233Z,61.53
2023-04-29T03:37:24.811Z,61.68
2023-04-29T03:39:54.080Z,61.63
2023-04-29T03:42:23.237Z,61.86
2023-04-29T03:44:52.549Z,62.08
2023-04-29T03:47:21.598Z,62.06
2023-04-29T03:49:51.040Z,62.05
2023-04-29T03:52:20.305Z,62.16
2023-04-29T03:54:49.504Z,62.57
2023-04-29T03:57:18.421Z,62.77
2023-04-29T03:59:51.203Z,62.82
2023-04-29T04:02:20.543Z,62.95
2023-04-29T04:04:49.777Z,63.12
2023-04-29T04:07:18.967Z,63.19
2023-04-29T04:09:48.073Z,63.26
2023-04-29T04:12:17.244Z,63.14
2023-04-29T04:14:46.194Z,63.06
2023-04-29T04:17:14.983Z,63.40
2023-04-29T04:19:44.058Z,63.15
2023-04-29T04:22:13.586Z,62.91
2023-04-29T04:24:42.551Z,63.20
2023-04-29T04:27:11.656Z,63.55
2023-04-29T04:29:40.785Z,63.54
2023-04-29T04:32:09.795Z,63.30
2023-04-29T04:34:40.190Z,62.97
2023-04-29T04:37:09.267Z,62.88
2023-04-29T04:39:39.800Z,62.22
2023-04-29T04:42:08.472Z,61.64
2023-04-29T04:44:38.315Z,60.66
2023-04-29T04:47:07.621Z,60.25
2023-04-29T04:49:36.787Z,60.43
2023-04-29T04:52:05.824Z,61.33
2023-04-29T04:54:35.788Z,61.68
2023-04-29T04:57:06.832Z,61.68
2023-04-29T04:59:35.888Z,61.69
2023-04-29T05:02:05.082Z,61.84
2023-04-29T05:04:34.676Z,62.10
2023-04-29T05:07:04.288Z,62.43
2023-04-29T05:09:33.677Z,62.76
2023-04-29T05:12:02.934Z,62.92
2023-04-29T05:14:31.921Z,63.17
2023-04-29T05:17:01.698Z,63.21
2023-04-29T05:19:31.153Z,62.73
2023-04-29T05:22:00.135Z,62.53
2023-04-29T05:24:30.146Z,61.92
2023-04-29T05:26:59.302Z,61.00
2023-04-29T05:29:28.691Z,59.77
2023-04-29T05:31:57.990Z,58.80
2023-04-29T05:34:27.041Z,58.04
2023-04-29T05:36:56.341Z,57.30
2023-04-29T05:39:25.131Z,57.02
2023-04-29T05:41:54.178Z,57.05
2023-04-29T05:44:23.625Z,57.56
2023-04-29T05:46:52.987Z,57.49
2023-04-29T05:49:25.648Z,57.32
2023-04-29T05:51:55.390Z,57.32
2023-04-29T05:54:24.969Z,57.41
2023-04-29T05:56:54.979Z,57.55
2023-04-29T05:59:23.974Z,58.20
2023-04-29T06:01:55.351Z,58.55
2023-04-29T06:04:28.765Z,58.42
2023-04-29T06:07:05.945Z,58.02
2023-04-29T06:09:43.186Z,57.85
2023-04-29T06:12:20.871Z,57.35
2023-04-29T06:14:53.342Z,56.60
2023-04-29T06:17:23.222Z,55.42
2023-04-29T06:19:53.251Z,54.40
2023-04-29T06:22:24.282Z,53.55
2023-04-29T06:24:54.058Z,52.29
2023-04-29T06:27:24.129Z,51.07
2023-04-29T06:29:53.869Z,50.39
2023-04-29T06:32:23.687Z,49.95
2023-04-29T06:34:56.328Z,49.06
2023-04-29T06:37:29.317Z,48.61
2023-04-29T06:39:58.850Z,48.24
2023-04-29T06:42:28.067Z,47.38
2023-04-29T06:44:56.958Z,46.65
2023-04-29T06:47:26.150Z,45.60
2023-04-29T06:49:55.547Z,44.40
2023-04-29T06:52:25.407Z,42.69
2023-04-29T06:54:54.529Z,40.20
2023-04-29T06:57:24.699Z,39.34
2023-04-29T06:59:53.860Z,39.26
2023-04-29T07:02:23.794Z,36.67
2023-04-29T07:04:54.928Z,35.47
2023-04-29T07:07:24.006Z,34.91
2023-04-29T07:09:54.023Z,33.51
2023-04-29T07:12:23.161Z,33.12
2023-04-29T07:14:52.356Z,32.90
2023-04-29T07:17:22.705Z,30.39
2023-04-29T07:19:53.994Z,29.41
2023-04-29T07:22:26.579Z,29.19
2023-04-29T07:24:57.659Z,29.50
2023-04-29T07:27:27.784Z,29.31
2023-04-29T07:30:04.683Z,30.40
2023-04-29T07:32:34.178Z,30.64
2023-04-29T07:35:04.253Z,30.05
2023-04-29T07:37:33.535Z,29.01
2023-04-29T07:40:02.898Z,28.49
2023-04-29T07:42:32.569Z,28.69
2023-04-29T07:45:02.369Z,28.88
2023-04-29T07:47:31.942Z,27.52
2023-04-29T07:50:01.668Z,27.35
2023-04-29T07:52:30.804Z,26.97
2023-04-29T07:55:01.156Z,27.89
2023-04-29T07:57:30.912Z,28.56
2023-04-29T08:00:00.582Z,28.24
2023-04-29T08:02:30.278Z,27.70
2023-04-29T08:05:02.023Z,27.77
2023-04-29T08:07:32.308Z,28.31
2023-04-29T08:10:01.584Z,28.38
2023-04-29T08:12:31.809Z,28.17
2023-04-29T08:15:01.619Z,28.48
2023-04-29T08:17:32.535Z,27.56
2023-04-29T08:20:02.151Z,27.82
2023-04-29T08:22:31.810Z,27.72
2023-04-29T08:25:01.405Z,27.44
2023-04-29T08:27:30.821Z,26.21
2023-04-29T08:30:00.156Z,26.02
2023-04-29T08:32:31.155Z,26.22
2023-04-29T08:35:00.907Z,26.43
2023-04-29T08:37:31.523Z,26.47
2023-04-29T08:40:00.962Z,26.10
2023-04-29T08:42:35.529Z,26.25
2023-04-29T08:45:07.026Z,26.71
2023-04-29T08:47:39.230Z,26.91
2023-04-29T08:50:10.186Z,27.58
2023-04-29T08:52:39.416Z,27.98
2023-04-29T08:55:09.868Z,28.53
2023-04-29T08:57:41.855Z,29.10
2023-04-29T09:00:12.241Z,29.57
2023-04-29T09:03:06.142Z,30.04
2023-04-29T09:05:35.026Z,30.70
2023-04-29T09:08:06.270Z,31.23
2023-04-29T09:10:39.550Z,31.29
2023-04-29T09:13:09.550Z,31.53
2023-04-29T09:15:43.156Z,31.73
2023-04-29T09:18:12.677Z,31.26
2023-04-29T09:20:42.119Z,32.03
2023-04-29T09:23:11.383Z,33.04
2023-04-29T09:25:40.592Z,34.23
2023-04-29T09:28:17.815Z,35.65
2023-04-29T09:30:47.776Z,36.55
2023-04-29T09:33:17.872Z,36.86
2023-04-29T09:35:48.372Z,36.56
2023-04-29T09:38:18.207Z,35.98
2023-04-29T09:40:58.925Z,35.97
2023-04-29T09:43:29.331Z,37.52
2023-04-29T09:45:59.184Z,36.37
2023-04-29T09:48:34.914Z,35.36
2023-04-29T09:51:07.957Z,35.10
2023-04-29T09:53:39.512Z,34.79
2023-04-29T09:56:09.658Z,33.48
2023-04-29T09:58:40.758Z,32.85
2023-04-29T10:01:10.907Z,32.85
2023-04-29T10:03:43.252Z,32.86
2023-04-29T10:06:13.790Z,33.34
2023-04-29T10:08:44.740Z,33.36
2023-04-29T10:11:16.923Z,33.01
2023-04-29T10:13:48.673Z,33.20
2023-04-29T10:16:31.330Z,33.65
2023-04-29T10:19:07.365Z,33.58
2023-04-29T10:21:38.866Z,33.41
2023-04-29T10:24:14.118Z,33.98
2023-04-29T10:26:45.109Z,34.77
2023-04-29T10:29:16.524Z,34.80
2023-04-29T10:31:48.003Z,34.32
2023-04-29T10:34:19.191Z,34.17
2023-04-29T10:36:50.038Z,33.88
2023-04-29T10:39:34.325Z,33.46
2023-04-29T10:42:15.422Z,33.91
2023-04-29T10:45:22.161Z,33.52
2023-04-29T10:48:03.451Z,33.58
2023-04-29T10:50:38.219Z,34.00
2023-04-29T10:53:07.554Z,34.00
2023-04-29T10:55:39.066Z,34.51
2023-04-29T10:58:40.279Z,35.29
2023-04-29T11:01:11.855Z,35.81
2023-04-29T11:03:47.468Z,36.55
2023-04-29T11:06:18.536Z,36.66
2023-04-29T11:08:49.156Z,37.85
2023-04-29T11:11:18.609Z,38.37
2023-04-29T11:13:48.745Z,37.40
2023-04-29T11:16:30.191Z,38.36
2023-04-29T11:19:09.937Z,38.62
2023-04-29T11:21:39.871Z,38.82
2023-04-29T11:24:09.543Z,38.66
2023-04-29T11:26:39.612Z,38.67
2023-04-29T11:29:12.376Z,38.57
2023-04-29T11:31:41.868Z,39.04
2023-04-29T11:34:11.739Z,39.49
2023-04-29T11:36:41.082Z,39.84
2023-04-29T11:39:10.662Z,39.29
2023-04-29T11:41:40.154Z,39.47
2023-04-29T11:44:11.044Z,39.72
2023-04-29T11:46:40.795Z,39.48
2023-04-29T11:49:09.910Z,39.90
2023-04-29T11:51:40.242Z,40.29
2023-04-29T11:54:10.195Z,39.74
2023-04-29T11:56:39.520Z,40.66
2023-04-29T11:59:09.600Z,39.79
2023-04-29T12:01:40.794Z,39.95
2023-04-29T12:04:14.197Z,40.54
2023-04-29T12:06:44.524Z,40.55
2023-04-29T12:09:16.395Z,40.24
2023-04-29T12:11:48.001Z,40.60
2023-04-29T12:14:18.296Z,39.83
2023-04-29T12:16:48.379Z,39.49
2023-04-29T12:19:19.372Z,39.11
2023-04-29T12:21:49.960Z,38.99
2023-04-29T12:24:21.787Z,38.77
2023-04-29T12:26:51.460Z,37.88
2023-04-29T12:29:24.178Z,37.99
2023-04-29T12:31:53.944Z,38.21
2023-04-29T12:34:31.177Z,38.10
2023-04-29T12:37:02.862Z,38.74
2023-04-29T12:39:35.592Z,38.90
2023-04-29T12:42:05.237Z,39.17
2023-04-29T12:44:38.011Z,38.96
2023-04-29T12:47:11.116Z,39.22
2023-04-29T12:49:47.863Z,39.58
2023-04-29T12:52:17.653Z,39.96
2023-04-29T12:54:47.510Z,40.21
2023-04-29T12:57:17.190Z,39.63
2023-04-29T12:59:46.841Z,39.08
2023-04-29T13:02:17.386Z,38.76
2023-04-29T13:04:47.033Z,38.50
2023-04-29T13:07:16.275Z,38.10
2023-04-29T13:09:45.692Z,37.70
2023-04-29T13:12:14.429Z,37.95
2023-04-29T13:14:44.762Z,37.82
2023-04-29T13:17:14.350Z,37.62
2023-04-29T13:19:51.715Z,37.24
2023-04-29T13:22:22.549Z,36.98
2023-04-29T13:24:53.106Z,36.48
2023-04-29T13:27:22.894Z,36.40
2023-04-29T13:29:52.128Z,36.41
2023-04-29T13:32:24.688Z,36.07
2023-04-29T13:34:56.045Z,35.34
2023-04-29T13:37:25.385Z,34.94
2023-04-29T13:39:57.564Z,34.91
2023-04-29T13:42:27.729Z,34.91
2023-04-29T13:44:57.874Z,35.19
2023-04-29T13:47:30.360Z,34.23
2023-04-29T14:00:38.195Z,32.65
2023-04-29T14:03:03.898Z,32.08
2023-04-29T14:05:34.027Z,31.05
2023-04-29T14:08:03.833Z,30.55
2023-04-29T14:10:34.498Z,30.42
2023-04-29T14:13:04.456Z,30.07
2023-04-29T14:15:33.486Z,29.55
2023-04-29T14:18:02.693Z,29.22
2023-04-29T14:20:32.558Z,29.14
2023-04-29T14:23:01.633Z,29.49
2023-04-29T14:25:33.931Z,29.38
2023-04-29T14:28:03.402Z,29.48
2023-04-29T14:30:33.508Z,29.69
2023-04-29T14:33:03.215Z,29.75
2023-04-29T14:35:32.597Z,29.91
2023-04-29T14:38:01.744Z,29.96
2023-04-29T14:40:31.146Z,29.89
2023-04-29T14:43:00.652Z,29.62
2023-04-29T14:45:31.238Z,29.63
2023-04-29T14:48:02.325Z,29.92
2023-04-29T14:50:32.478Z,29.75
2023-04-29T14:53:01.988Z,30.05
2023-04-29T14:55:31.599Z,30.20
2023-04-29T14:58:01.525Z,30.50
2023-04-29T15:00:31.348Z,30.73
2023-04-29T15:03:03.610Z,30.66
2023-04-29T15:05:33.417Z,30.91
2023-04-29T15:08:04.058Z,31.63
2023-04-29T15:10:33.507Z,31.93
2023-04-29T15:13:02.996Z,32.19
2023-04-29T15:15:33.007Z,32.12
2023-04-29T15:18:02.667Z,32.94
2023-04-29T15:20:31.440Z,33.15
2023-04-29T15:23:01.218Z,33.55
2023-04-29T15:25:32.561Z,34.32
2023-04-29T15:28:05.119Z,34.92
2023-04-29T15:30:34.578Z,35.48
2023-04-29T15:33:05.107Z,36.20
2023-04-29T15:35:37.090Z,36.64
2023-04-29T15:38:07.082Z,36.72
2023-04-29T15:40:37.643Z,37.04
2023-04-29T15:43:08.069Z,37.68
2023-04-29T15:45:37.831Z,38.14
2023-04-29T15:48:07.962Z,38.51
2023-04-29T15:50:38.121Z,38.78
2023-04-29T15:53:08.020Z,38.84
2023-04-29T15:55:36.985Z,39.76
2023-04-29T15:58:07.102Z,39.64
2023-04-29T16:00:36.847Z,39.54
2023-04-29T16:03:06.350Z,40.19
2023-04-29T16:05:37.548Z,40.59
2023-04-29T16:08:07.246Z,40.74
2023-04-29T16:10:36.151Z,41.14
2023-04-29T16:13:05.152Z,41.67
2023-04-29T16:15:34.725Z,41.98
2023-04-29T16:18:04.240Z,42.75
2023-04-29T16:20:34.118Z,42.79
2023-04-29T16:23:04.105Z,43.34
2023-04-29T16:25:33.301Z,43.62
2023-04-29T16:28:02.282Z,44.00
2023-04-29T16:30:31.253Z,43.83
2023-04-29T16:33:00.397Z,44.16
2023-04-29T16:35:31.381Z,44.40
2023-04-29T16:38:01.208Z,44.82
2023-04-29T16:40:30.057Z,45.21
2023-04-29T16:42:59.354Z,45.17
2023-04-29T16:45:29.770Z,45.37
2023-04-29T16:47:59.283Z,45.84
2023-04-29T16:50:29.186Z,45.91
2023-04-29T16:52:59.353Z,46.19
2023-04-29T16:55:28.419Z,46.40
2023-04-29T16:57:57.863Z,46.69
2023-04-29T17:00:28.014Z,46.70
2023-04-29T17:02:59.810Z,46.73
2023-04-29T17:05:29.096Z,47.09
2023-04-29T17:07:57.791Z,47.41
2023-04-29T17:10:28.211Z,47.72
2023-04-29T17:12:57.768Z,48.18
2023-04-29T17:15:27.118Z,48.49
2023-04-29T17:17:57.029Z,48.74
2023-04-29T17:20:28.551Z,49.12
2023-04-29T17:22:58.413Z,49.28
2023-04-29T17:25:28.141Z,49.45
2023-04-29T17:27:57.010Z,49.60
2023-04-29T17:30:26.250Z,49.74
2023-04-29T17:32:55.304Z,49.90
2023-04-29T17:35:24.657Z,50.28
2023-04-29T17:37:54.318Z,50.39
2023-04-29T17:40:25.587Z,50.68
2023-04-29T17:42:55.747Z,50.91
2023-04-29T17:45:25.887Z,51.35
2023-04-29T17:47:57.009Z,51.45
2023-04-29T17:50:27.030Z,51.71
2023-04-29T17:52:58.304Z,52.00
2023-04-29T17:55:29.016Z,52.23
2023-04-29T17:57:59.347Z,52.84
2023-04-29T18:00:28.871Z,53.38
2023-04-29T18:02:58.897Z,53.90
2023-04-29T18:05:30.422Z,53.92
2023-04-29T18:08:00.255Z,53.99
2023-04-29T18:10:30.356Z,54.47
2023-04-29T18:13:00.429Z,54.62
2023-04-29T18:15:32.190Z,54.84
2023-04-29T18:18:02.510Z,55.72
2023-04-29T18:20:34.313Z,56.37
2023-04-29T18:23:05.429Z,56.12
2023-04-29T18:25:39.726Z,56.18
2023-04-29T18:28:24.066Z,56.21
2023-04-29T18:30:56.685Z,56.43
2023-04-29T18:33:27.753Z,56.41
2023-04-29T18:35:57.664Z,56.49
2023-04-29T18:38:27.075Z,56.65
2023-04-29T18:40:56.276Z,56.71
2023-04-29T18:43:29.616Z,56.82
2023-04-29T18:45:59.806Z,56.89
2023-04-29T18:48:30.723Z,56.92
2023-04-29T18:51:01.080Z,57.16
2023-04-29T18:53:32.181Z,57.48
2023-04-29T18:56:01.641Z,57.22
2023-04-29T18:58:31.966Z,57.17
2023-04-29T19:01:03.087Z,57.58
2023-04-29T19:03:32.751Z,57.57
2023-04-29T19:06:02.963Z,57.93
2023-04-29T19:08:32.599Z,58.01
2023-04-29T19:11:02.451Z,57.87
2023-04-29T19:13:32.915Z,58.14
2023-04-29T19:16:03.136Z,58.31
2023-04-29T19:18:33.720Z,58.68
2023-04-29T19:21:03.765Z,58.82
2023-04-29T19:23:33.490Z,58.60
2023-04-29T19:26:06.288Z,58.49
2023-04-29T19:28:36.762Z,58.56
2023-04-29T19:31:06.259Z,59.02
2023-04-29T19:33:37.061Z,59.44
2023-04-29T19:36:08.255Z,59.21
2023-04-29T19:38:39.007Z,59.20
2023-04-29T19:41:10.088Z,59.22
2023-04-29T19:43:40.183Z,59.42
2023-04-29T19:46:12.854Z,59.96
2023-04-29T19:48:43.841Z,60.15
2023-04-29T19:51:13.479Z,59.80
2023-04-29T19:53:47.791Z,59.68
2023-04-29T19:56:20.697Z,59.68
2023-04-29T19:58:51.181Z,60.07
2023-04-29T20:01:20.974Z,60.29
2023-04-29T20:03:50.529Z,60.46
2023-04-29T20:06:21.103Z,60.59
2023-04-29T20:08:52.103Z,61.21
2023-04-29T20:11:21.696Z,62.17
2023-04-29T20:13:51.047Z,62.55
2023-04-29T20:16:20.265Z,62.51
2023-04-29T20:18:49.161Z,62.72
2023-04-29T20:21:18.619Z,63.20
2023-04-29T20:23:50.059Z,63.77
2023-04-29T20:26:19.810Z,63.66
2023-04-29T20:28:49.823Z,63.81
2023-04-29T20:31:19.262Z,63.98
2023-04-29T20:33:48.330Z,63.93
2023-04-29T20:36:17.493Z,63.91
2023-04-29T20:38:49.275Z,64.09
2023-04-29T20:41:19.059Z,64.36
2023-04-29T20:43:47.836Z,64.84
2023-04-29T20:46:17.395Z,64.84
2023-04-29T20:48:48.342Z,64.79
2023-04-29T20:51:18.035Z,64.69
2023-04-29T20:53:47.300Z,64.72
2023-04-29T20:56:16.732Z,64.88
2023-04-29T20:58:46.004Z,64.62
2023-04-29T21:01:15.382Z,64.58
2023-04-29T21:03:44.900Z,64.40
2023-04-29T21:06:14.533Z,64.62
2023-04-29T21:08:43.739Z,64.79
2023-04-29T21:11:13.437Z,64.70
2023-04-29T21:13:43.204Z,64.59
2023-04-29T21:16:12.284Z,64.84
2023-04-29T21:18:41.576Z,65.01
2023-04-29T21:21:12.225Z,65.07
2023-04-29T21:23:42.444Z,64.80
2023-04-29T21:26:12.335Z,64.93
2023-04-29T21:28:42.623Z,65.43
2023-04-29T21:31:16.683Z,65.59
2023-04-29T21:33:46.376Z,65.66
2023-04-29T21:36:15.795Z,65.73
2023-04-29T21:38:44.818Z,66.21
2023-04-29T21:41:26.938Z,66.56
2023-04-29T21:44:00.320Z,66.64
2023-04-29T21:46:30.304Z,66.52
2023-04-29T21:48:59.541Z,66.16
2023-04-29T21:51:30.028Z,66.23
2023-04-29T21:53:59.229Z,66.17
2023-04-29T21:56:28.112Z,66.12
2023-04-29T21:58:57.480Z,65.85
2023-04-29T22:01:27.869Z,65.87
2023-04-29T22:03:58.138Z,65.89
2023-04-29T22:06:28.219Z,66.13
2023-04-29T22:08:57.967Z,66.34
2023-04-29T22:11:26.751Z,66.38
2023-04-29T22:13:56.006Z,66.51
2023-04-29T22:16:25.667Z,66.62
2023-04-29T22:18:58.061Z,66.67
2023-04-29T22:21:28.727Z,66.70
2023-04-29T22:23:58.377Z,66.67
2023-04-29T22:26:27.175Z,67.00
2023-04-29T22:28:57.721Z,66.89
2023-04-29T22:31:28.234Z,66.97
2023-04-29T22:33:57.342Z,66.77
2023-04-29T22:36:26.314Z,67.01
2023-04-29T22:38:55.457Z,67.02
2023-04-29T22:41:25.176Z,67.12
2023-04-29T22:43:58.175Z,67.12
2023-04-29T22:46:27.917Z,66.91
2023-04-29T22:48:57.122Z,67.00
2023-04-29T22:51:26.279Z,67.24
2023-04-29T22:53:55.592Z,67.19
2023-04-29T22:56:25.028Z,66.85
2023-04-29T22:58:54.979Z,66.82
2023-04-29T23:01:26.796Z,67.13
2023-04-29T23:03:57.041Z,67.05
2023-04-29T23:06:26.653Z,67.14
2023-04-29T23:08:55.729Z,66.72
2023-04-29T23:11:24.652Z,66.70
2023-04-29T23:13:55.096Z,66.73
2023-04-29T23:16:24.202Z,66.94
2023-04-29T23:18:53.203Z,66.65
2023-04-29T23:21:22.420Z,66.58
2023-04-29T23:23:51.153Z,66.77
2023-04-29T23:26:20.227Z,66.98
2023-04-29T23:28:48.992Z,67.26
2023-04-29T23:31:17.997Z,67.08
2023-04-29T23:33:46.907Z,66.77
2023-04-29T23:36:16.040Z,66.92
2023-04-29T23:38:44.935Z,67.06
2023-04-29T23:41:13.872Z,66.80
2023-04-29T23:43:42.662Z,66.57
2023-04-29T23:46:11.785Z,66.74
2023-04-29T23:48:40.458Z,66.86
2023-04-29T23:51:09.540Z,67.07
2023-04-29T23:53:39.700Z,67.10
2023-04-29T23:56:08.750Z,67.10
2023-04-29T23:58:37.782Z,67.22
